createdAt,value
2022-08-09T00:01:05.024Z,50.43
2022-08-09T00:04:05.671Z,50.05
2022-08-09T00:06:23.671Z,50.39
2022-08-09T00:08:50.067Z,50.25
2022-08-09T00:11:24.781Z,50.35
2022-08-09T00:13:51.797Z,50.24
2022-08-09T00:16:25.856Z,50.11
2022-08-09T00:19:02.711Z,50.76
2022-08-09T00:21:35.654Z,50.35
2022-08-09T00:24:02.085Z,50.61
2022-08-09T00:26:30.057Z,50.28
2022-08-09T00:28:59.578Z,50.62
2022-08-09T00:31:57.482Z,50.76
2022-08-09T00:34:13.559Z,50.88
2022-08-09T00:36:41.511Z,51.30
2022-08-09T00:39:16.891Z,51.14
2022-08-09T00:44:10.712Z,50.56
2022-08-09T00:44:41.689Z,50.77
2022-08-09T00:47:08.598Z,51.13
2022-08-09T00:49:41.838Z,51.24
2022-08-09T00:52:15.909Z,51.62
2022-08-09T00:54:45.079Z,51.37
2022-08-09T00:57:12.385Z,52.11
2022-08-09T00:59:41.528Z,51.53
2022-08-09T01:02:13.413Z,51.67
2022-08-09T01:04:39.770Z,52.14
2022-08-09T01:07:12.379Z,52.67
2022-08-09T01:09:40.434Z,52.52
2022-08-09T01:12:06.850Z,52.46
2022-08-09T01:14:34.957Z,52.47
2022-08-09T01:17:01.324Z,52.13
2022-08-09T01:19:43.053Z,52.51
2022-08-09T01:22:16.885Z,52.29
2022-08-09T01:24:44.032Z,52.43
2022-08-09T01:27:17.918Z,52.56
2022-08-09T01:29:55.507Z,53.28
2022-08-09T01:32:31.927Z,52.99
2022-08-09T01:35:00.793Z,53.46
2022-08-09T01:38:10.122Z,53.79
2022-08-09T01:40:30.860Z,53.68
2022-08-09T01:42:57.981Z,53.35
2022-08-09T01:45:24.892Z,53.73
2022-08-09T01:47:51.282Z,53.75
2022-08-09T01:50:18.808Z,53.55
2022-08-09T01:52:56.413Z,53.40
2022-08-09T01:55:22.778Z,53.72
2022-08-09T01:57:52.967Z,53.71
2022-08-09T02:00:35.533Z,54.16
2022-08-09T02:03:02.581Z,54.17
2022-08-09T02:05:37.710Z,54.02
2022-08-09T02:08:38.531Z,53.84
2022-08-09T02:10:51.753Z,53.85
2022-08-09T02:13:18.256Z,53.64
2022-08-09T02:15:49.266Z,53.63
2022-08-09T02:18:17.737Z,54.04
2022-08-09T02:20:44.119Z,53.75
2022-08-09T02:23:10.618Z,53.74
2022-08-09T02:25:42.268Z,53.70
2022-08-09T02:28:12.978Z,53.35
2022-08-09T02:30:44.372Z,53.63
2022-08-09T02:33:14.272Z,53.21
2022-08-09T02:36:02.874Z,53.43
2022-08-09T02:38:28.737Z,53.25
2022-08-09T02:40:55.973Z,53.12
2022-08-09T02:43:22.441Z,53.32
2022-08-09T02:45:48.835Z,53.15
2022-08-09T02:48:30.686Z,53.52
2022-08-09T02:50:57.943Z,53.35
2022-08-09T02:53:26.573Z,52.56
2022-08-09T02:55:57.988Z,53.01
2022-08-09T02:58:32.972Z,53.00
2022-08-09T03:01:04.342Z,53.09
2022-08-09T03:04:12.725Z,52.85
2022-08-09T03:06:17.446Z,52.87
2022-08-09T03:08:43.817Z,52.68
2022-08-09T03:11:10.537Z,52.56
2022-08-09T03:13:43.326Z,52.85
2022-08-09T03:16:10.785Z,53.38
2022-08-09T03:18:38.298Z,52.70
2022-08-09T03:21:04.826Z,53.20
2022-08-09T03:23:31.173Z,53.26
2022-08-09T03:25:59.303Z,53.30
2022-08-09T03:28:31.085Z,53.55
2022-08-09T03:30:57.493Z,53.21
2022-08-09T03:33:25.209Z,53.63
2022-08-09T03:36:12.648Z,53.71
2022-08-09T03:38:42.692Z,54.13
2022-08-09T03:41:10.417Z,54.21
2022-08-09T03:43:42.394Z,54.29
2022-08-09T03:46:20.703Z,53.94
2022-08-09T03:48:53.781Z,54.34
2022-08-09T03:51:56.962Z,54.74
2022-08-09T03:54:10.656Z,54.79
2022-08-09T03:56:37.714Z,55.25
2022-08-09T03:59:07.464Z,56.14
2022-08-09T04:01:40.973Z,55.77
2022-08-09T04:04:14.450Z,55.33
2022-08-09T04:06:44.102Z,55.04
2022-08-09T04:09:41.978Z,55.36
2022-08-09T04:12:03.044Z,55.50
2022-08-09T04:14:53.270Z,54.77
2022-08-09T04:17:15.839Z,54.55
2022-08-09T04:19:51.040Z,54.07
2022-08-09T04:22:22.453Z,54.07
2022-08-09T04:24:48.876Z,54.36
2022-08-09T04:27:15.235Z,54.60
2022-08-09T04:29:49.569Z,54.22
2022-08-09T04:32:23.555Z,54.50
2022-08-09T04:34:57.958Z,54.19
2022-08-09T04:37:25.230Z,54.45
2022-08-09T04:40:11.672Z,54.43
2022-08-09T04:42:45.851Z,54.83
2022-08-09T04:45:15.085Z,54.70
2022-08-09T04:47:58.531Z,54.18
2022-08-09T04:50:35.149Z,54.42
2022-08-09T04:53:04.581Z,54.12
2022-08-09T04:55:39.242Z,54.06
2022-08-09T04:58:18.027Z,54.04
2022-08-09T05:00:45.433Z,54.40
2022-08-09T05:03:13.330Z,54.62
2022-08-09T05:06:06.830Z,54.80
2022-08-09T05:08:34.983Z,54.67
2022-08-09T05:11:02.582Z,54.86
2022-08-09T05:13:29.189Z,54.74
2022-08-09T05:16:00.603Z,54.61
2022-08-09T05:18:37.642Z,54.58
2022-08-09T05:21:13.510Z,54.33
2022-08-09T05:23:54.267Z,54.69
2022-08-09T05:26:37.166Z,54.69
2022-08-09T05:29:17.560Z,54.62
2022-08-09T05:31:52.124Z,54.68
2022-08-09T05:34:30.887Z,54.50
2022-08-09T05:36:59.044Z,54.54
2022-08-09T05:39:30.008Z,54.98
2022-08-09T05:42:04.573Z,54.98
2022-08-09T05:44:35.891Z,54.82
2022-08-09T05:47:05.635Z,54.83
2022-08-09T05:50:23.695Z,54.58
2022-08-09T05:52:18.694Z,54.86
2022-08-09T05:54:49.157Z,55.17
2022-08-09T05:57:19.150Z,55.02
2022-08-09T05:59:45.780Z,54.56
2022-08-09T06:02:12.143Z,54.89
2022-08-09T06:04:44.591Z,54.26
2022-08-09T06:07:21.283Z,54.19
2022-08-09T06:10:01.371Z,55.20
2022-08-09T06:12:32.078Z,55.10
2022-08-09T06:15:01.485Z,54.42
2022-08-09T06:17:39.917Z,54.70
2022-08-09T06:20:08.056Z,54.67
2022-08-09T06:22:35.777Z,55.90
2022-08-09T06:25:02.669Z,56.60
2022-08-09T06:27:43.072Z,56.63
2022-08-09T06:30:16.875Z,56.18
2022-08-09T06:33:00.211Z,55.30
2022-08-09T06:35:56.189Z,54.94
2022-08-09T06:38:17.996Z,54.71
2022-08-09T06:40:45.679Z,54.64
2022-08-09T06:43:12.054Z,54.72
2022-08-09T06:46:05.284Z,55.47
2022-08-09T06:48:26.224Z,54.59
2022-08-09T06:50:57.533Z,55.23
2022-08-09T06:53:25.584Z,55.26
2022-08-09T06:55:52.048Z,55.38
2022-08-09T06:58:40.740Z,55.35
2022-08-09T07:01:05.741Z,55.24
2022-08-09T07:03:34.182Z,55.17
2022-08-09T07:06:06.395Z,55.18
2022-08-09T07:08:33.889Z,54.75
2022-08-09T07:11:00.264Z,54.85
2022-08-09T07:13:45.407Z,54.95
2022-08-09T07:16:41.750Z,54.98
2022-08-09T07:19:08.187Z,55.19
2022-08-09T07:21:35.440Z,54.86
2022-08-09T07:24:03.032Z,55.02
2022-08-09T07:26:33.259Z,55.32
2022-08-09T07:29:12.262Z,54.98
2022-08-09T07:31:45.529Z,55.03
2022-08-09T07:34:20.818Z,55.31
2022-08-09T07:36:47.559Z,54.93
2022-08-09T07:39:20.532Z,55.11
2022-08-09T07:42:01.199Z,55.18
2022-08-09T07:44:33.016Z,54.89
2022-08-09T07:47:15.827Z,55.38
2022-08-09T07:50:05.334Z,55.51
2022-08-09T07:52:29.315Z,55.48
2022-08-09T07:54:56.685Z,55.49
2022-08-09T07:57:24.051Z,55.13
2022-08-09T08:00:03.169Z,55.19
2022-08-09T08:02:30.563Z,54.97
2022-08-09T08:04:59.861Z,55.43
2022-08-09T08:08:43.880Z,55.26
2022-08-09T08:10:12.672Z,54.76
2022-08-09T08:12:43.464Z,55.04
2022-08-09T08:15:11.569Z,55.05
2022-08-09T08:17:54.610Z,54.84
2022-08-09T08:20:29.382Z,54.62
2022-08-09T08:23:01.590Z,54.78
2022-08-09T08:25:43.768Z,54.80
2022-08-09T08:28:11.311Z,54.75
2022-08-09T08:30:41.783Z,54.97
2022-08-09T08:33:11.798Z,54.98
2022-08-09T08:35:59.708Z,54.96
2022-08-09T08:38:24.937Z,54.64
2022-08-09T08:40:51.330Z,54.59
2022-08-09T08:43:18.578Z,53.96
2022-08-09T08:45:51.341Z,54.23
2022-08-09T08:48:19.316Z,53.34
2022-08-09T08:50:49.387Z,53.41
2022-08-09T08:53:21.543Z,53.06
2022-08-09T08:55:52.582Z,53.07
2022-08-09T08:58:19.177Z,52.83
2022-08-09T09:00:54.432Z,52.87
2022-08-09T09:03:32.939Z,53.20
2022-08-09T09:06:06.597Z,52.72
2022-08-09T09:08:40.454Z,53.08
2022-08-09T09:11:13.909Z,52.85
2022-08-09T09:13:57.038Z,52.95
2022-08-09T09:16:30.913Z,52.59
2022-08-09T09:19:21.485Z,52.64
2022-08-09T09:21:46.795Z,53.05
2022-08-09T09:24:21.323Z,52.68
2022-08-09T09:26:50.840Z,52.64
2022-08-09T09:29:19.064Z,52.48
2022-08-09T09:32:07.046Z,52.18
2022-08-09T09:34:31.931Z,52.02
2022-08-09T09:36:59.950Z,51.39
2022-08-09T09:39:42.871Z,51.82
2022-08-09T09:42:14.439Z,51.35
2022-08-09T09:44:40.813Z,51.12
2022-08-09T09:47:09.588Z,51.25
2022-08-09T09:50:07.382Z,51.49
2022-08-09T09:52:52.447Z,51.00
2022-08-09T09:55:24.019Z,50.92
2022-08-09T09:58:02.568Z,50.67
2022-08-09T10:00:31.592Z,50.76
2022-08-09T10:02:58.321Z,50.54
2022-08-09T10:06:01.409Z,50.24
2022-08-09T10:08:27.784Z,50.21
2022-08-09T10:10:55.854Z,50.44
2022-08-09T10:13:42.750Z,50.47
2022-08-09T10:16:56.621Z,50.95
2022-08-09T10:18:55.177Z,50.92
2022-08-09T10:21:21.585Z,50.30
2022-08-09T10:23:48.049Z,50.15
2022-08-09T10:26:19.553Z,50.19
2022-08-09T10:28:48.813Z,49.88
2022-08-09T10:34:10.693Z,49.28
2022-08-09T10:36:49.141Z,48.79
2022-08-09T10:39:18.315Z,48.78
2022-08-09T10:41:45.858Z,48.53
2022-08-09T10:44:15.128Z,48.54
2022-08-09T10:46:54.518Z,48.54
2022-08-09T10:49:22.769Z,49.14
2022-08-09T10:52:12.420Z,48.70
2022-08-09T10:54:46.740Z,48.94
2022-08-09T10:57:16.575Z,49.45
2022-08-09T10:59:57.625Z,49.12
2022-08-09T11:03:10.659Z,49.06
2022-08-09T11:05:24.830Z,48.38
2022-08-09T11:07:58.174Z,48.69
2022-08-09T11:10:26.754Z,48.48
2022-08-09T11:12:55.714Z,48.96
2022-08-09T11:15:24.119Z,48.67
2022-08-09T11:17:53.443Z,48.84
2022-08-09T11:20:23.545Z,48.83
2022-08-09T11:22:57.174Z,48.30
2022-08-09T11:25:44.976Z,48.67
2022-08-09T11:28:30.798Z,48.97
2022-08-09T11:31:00.862Z,48.44
2022-08-09T11:33:27.877Z,48.77
2022-08-09T11:35:54.308Z,48.14
2022-08-09T11:38:22.332Z,48.62
2022-08-09T11:40:55.781Z,48.72
2022-08-09T11:43:22.152Z,48.61
2022-08-09T11:45:48.530Z,48.90
2022-08-09T11:48:25.208Z,48.52
2022-08-09T11:52:49.238Z,48.55
2022-08-09T11:54:00.955Z,47.05
2022-08-09T11:56:42.832Z,47.11
2022-08-09T11:59:13.181Z,46.92
2022-08-09T12:02:16.451Z,46.77
2022-08-09T12:04:32.331Z,46.97
2022-08-09T12:07:04.053Z,46.19
2022-08-09T12:09:34.226Z,46.85
2022-08-09T12:12:03.538Z,46.88
2022-08-09T12:14:41.098Z,46.50
2022-08-09T12:17:34.132Z,46.71
2022-08-09T12:20:03.253Z,46.80
2022-08-09T12:22:30.755Z,46.71
2022-08-09T12:24:57.304Z,46.76
2022-08-09T12:29:11.818Z,46.86
2022-08-09T12:30:35.468Z,47.25
2022-08-09T12:32:58.216Z,47.02
2022-08-09T12:35:24.606Z,47.10
2022-08-09T12:37:55.077Z,46.83
2022-08-09T12:40:23.128Z,46.62
2022-08-09T12:42:51.097Z,46.71
2022-08-09T12:45:34.471Z,47.16
2022-08-09T12:48:03.803Z,47.47
2022-08-09T12:50:30.168Z,47.73
2022-08-09T12:53:18.010Z,47.92
2022-08-09T12:56:14.497Z,47.60
2022-08-09T12:58:30.273Z,47.70
2022-08-09T13:00:58.216Z,47.30
2022-08-09T13:03:52.840Z,47.24
2022-08-09T13:06:13.534Z,47.79
2022-08-09T13:08:42.570Z,47.29
2022-08-09T13:11:25.843Z,47.35
2022-08-09T13:14:37.029Z,46.83
2022-08-09T13:16:38.932Z,47.14
2022-08-09T13:19:12.279Z,47.55
2022-08-09T13:22:35.376Z,47.32
2022-08-09T13:24:53.873Z,47.28
2022-08-09T13:27:12.862Z,47.58
2022-08-09T13:30:03.109Z,47.50
2022-08-09T13:32:28.906Z,47.74
2022-08-09T13:34:55.874Z,47.82
2022-08-09T13:37:50.568Z,48.20
2022-08-09T13:41:50.416Z,47.73
2022-08-09T13:42:56.208Z,48.32
2022-08-09T13:45:32.421Z,48.49
2022-08-09T13:48:10.704Z,48.29
2022-08-09T13:50:37.407Z,48.27
2022-08-09T13:53:03.817Z,48.13
2022-08-09T13:55:30.517Z,48.19
2022-08-09T13:57:58.424Z,48.21
2022-08-09T14:00:28.482Z,48.29
2022-08-09T14:03:02.789Z,48.08
2022-08-09T14:05:59.218Z,47.99
2022-08-09T14:08:28.528Z,47.95
2022-08-09T14:10:56.086Z,47.83
2022-08-09T14:13:27.912Z,48.04
2022-08-09T14:16:11.237Z,47.67
2022-08-09T14:18:37.927Z,47.74
2022-08-09T14:21:04.335Z,47.95
2022-08-09T14:23:41.025Z,47.81
2022-08-09T14:26:18.757Z,48.01
2022-08-09T14:28:45.194Z,47.83
2022-08-09T14:31:12.460Z,48.15
2022-08-09T14:33:39.852Z,48.04
2022-08-09T14:36:19.796Z,48.23
2022-08-09T14:38:47.502Z,48.28
2022-08-09T14:41:23.964Z,48.47
2022-08-09T14:44:11.106Z,48.06
2022-08-09T14:46:56.031Z,47.90
2022-08-09T14:49:24.211Z,48.00
2022-08-09T14:51:50.583Z,48.00
2022-08-09T14:54:28.220Z,48.15
2022-08-09T14:56:57.871Z,48.43
2022-08-09T14:59:25.481Z,47.99
2022-08-09T15:01:53.700Z,48.46
2022-08-09T15:04:23.643Z,48.53
2022-08-09T15:06:50.193Z,48.07
2022-08-09T15:10:03.501Z,47.97
2022-08-09T15:12:05.173Z,48.29
2022-08-09T15:14:34.656Z,48.53
2022-08-09T15:17:05.652Z,48.28
2022-08-09T15:19:36.199Z,48.19
2022-08-09T15:22:03.030Z,47.97
2022-08-09T15:24:29.545Z,47.72
2022-08-09T15:26:55.942Z,47.78
2022-08-09T15:30:48.245Z,47.20
2022-08-09T15:32:28.582Z,47.02
2022-08-09T15:34:57.263Z,47.39
2022-08-09T15:37:23.680Z,46.92
2022-08-09T15:39:53.524Z,47.23
2022-08-09T15:42:25.137Z,46.87
2022-08-09T15:44:51.551Z,47.14
2022-08-09T15:47:22.609Z,46.81
2022-08-09T15:50:03.786Z,47.08
2022-08-09T15:52:31.973Z,47.04
2022-08-09T15:54:58.566Z,47.65
2022-08-09T15:57:35.815Z,47.77
2022-08-09T16:00:13.744Z,47.88
2022-08-09T16:02:40.854Z,47.78
2022-08-09T16:05:07.435Z,47.62
2022-08-09T16:07:38.941Z,47.56
2022-08-09T16:10:06.119Z,47.75
2022-08-09T16:12:37.718Z,47.71
2022-08-09T16:16:11.469Z,47.66
2022-08-09T16:18:04.006Z,47.88
2022-08-09T16:20:30.548Z,47.18
2022-08-09T16:22:56.939Z,47.11
2022-08-09T16:25:37.036Z,47.38
2022-08-09T16:28:07.006Z,47.87
2022-08-09T16:30:33.376Z,47.54
2022-08-09T16:32:59.747Z,47.81
2022-08-09T16:35:53.225Z,47.78
2022-08-09T16:38:14.269Z,47.49
2022-08-09T16:40:44.494Z,47.85
2022-08-09T16:43:12.974Z,47.78
2022-08-09T16:45:44.462Z,48.01
2022-08-09T16:48:38.091Z,47.76
2022-08-09T16:51:08.336Z,47.73
2022-08-09T16:54:02.294Z,47.68
2022-08-09T16:56:26.727Z,47.85
2022-08-09T16:58:57.151Z,48.05
2022-08-09T17:01:24.914Z,48.22
2022-08-09T17:03:51.523Z,48.12
2022-08-09T17:06:31.511Z,48.17
2022-08-09T17:09:12.105Z,47.70
2022-08-09T17:11:44.366Z,47.78
2022-08-09T17:14:25.978Z,47.83
2022-08-09T17:16:54.925Z,48.35
2022-08-09T17:19:21.284Z,48.22
2022-08-09T17:21:47.654Z,49.01
2022-08-09T17:24:28.113Z,48.28
2022-08-09T17:26:57.102Z,48.38
2022-08-09T17:29:24.738Z,48.18
2022-08-09T17:31:57.867Z,47.97
2022-08-09T17:35:02.026Z,48.18
2022-08-09T17:37:19.941Z,48.46
2022-08-09T17:39:52.639Z,48.61
2022-08-09T17:42:40.953Z,48.92
2022-08-09T17:45:15.909Z,49.28
2022-08-09T17:47:54.976Z,50.10
2022-08-09T17:50:36.401Z,49.79
2022-08-09T17:53:04.825Z,49.63
2022-08-09T17:55:49.207Z,49.77
2022-08-09T17:58:18.460Z,50.02
2022-08-09T18:00:48.079Z,49.95
2022-08-09T18:03:17.914Z,50.15
2022-08-09T18:05:44.965Z,50.23
2022-08-09T18:08:19.558Z,50.25
2022-08-09T18:10:58.833Z,50.54
2022-08-09T18:13:39.362Z,50.35
2022-08-09T18:16:09.168Z,49.54
2022-08-09T18:18:35.771Z,48.99
2022-08-09T18:21:23.059Z,49.24
2022-08-09T18:24:11.115Z,49.33
2022-08-09T18:26:38.014Z,49.40
2022-08-09T18:30:42.913Z,49.02
2022-08-09T18:31:55.553Z,49.43
2022-08-09T18:34:24.238Z,49.91
2022-08-09T18:36:53.411Z,50.27
2022-08-09T18:39:20.364Z,50.54
2022-08-09T18:41:53.327Z,50.43
2022-08-09T18:44:25.416Z,50.68
2022-08-09T18:47:06.259Z,50.82
2022-08-09T18:49:43.204Z,51.21
2022-08-09T18:52:11.765Z,51.63
2022-08-09T18:54:38.486Z,51.87
2022-08-09T18:57:06.901Z,51.73
2022-08-09T18:59:49.180Z,51.55
2022-08-09T19:02:21.093Z,51.61
2022-08-09T19:05:04.065Z,52.20
2022-08-09T19:08:04.211Z,52.33
2022-08-09T19:10:37.082Z,52.77
2022-08-09T19:13:22.954Z,52.64
2022-08-09T19:15:56.322Z,52.35
2022-08-09T19:18:35.237Z,52.14
2022-08-09T19:21:05.566Z,52.36
2022-08-09T19:24:31.947Z,53.01
2022-08-09T19:26:29.189Z,52.38
2022-08-09T19:29:01.557Z,52.70
2022-08-09T19:31:28.589Z,52.36
2022-08-09T19:33:58.032Z,52.80
2022-08-09T19:36:31.062Z,52.50
2022-08-09T19:39:03.610Z,52.92
2022-08-09T19:41:33.072Z,53.05
2022-08-09T19:44:04.947Z,52.94
2022-08-09T19:46:35.304Z,53.02
2022-08-09T19:50:07.373Z,52.86
2022-08-09T19:51:55.843Z,53.05
2022-08-09T19:54:25.380Z,53.26
2022-08-09T19:56:52.067Z,53.41
2022-08-09T19:59:57.214Z,53.09
2022-08-09T20:04:06.929Z,53.22
2022-08-09T20:04:55.607Z,53.12
2022-08-09T20:07:22.734Z,53.26
2022-08-09T20:09:51.108Z,53.11
2022-08-09T20:12:27.375Z,53.70
2022-08-09T20:15:04.793Z,53.49
2022-08-09T20:17:54.566Z,52.89
2022-08-09T20:20:21.313Z,52.63
2022-08-09T20:22:48.556Z,52.33
2022-08-09T20:25:22.377Z,51.77
2022-08-09T20:27:49.644Z,51.96
2022-08-09T20:30:18.029Z,51.90
2022-08-09T20:32:52.506Z,52.29
2022-08-09T20:35:19.305Z,51.37
2022-08-09T20:38:21.202Z,51.82
2022-08-09T20:40:32.263Z,51.34
2022-08-09T20:43:17.820Z,51.47
2022-08-09T20:46:00.038Z,51.69
2022-08-09T20:48:31.815Z,51.58
2022-08-09T20:50:58.571Z,52.12
2022-08-09T20:53:36.244Z,52.01
2022-08-09T20:56:08.717Z,52.20
2022-08-09T20:58:35.612Z,52.24
2022-08-09T21:01:33.507Z,52.20
2022-08-09T21:05:48.148Z,51.95
2022-08-09T21:06:37.788Z,52.54
2022-08-09T21:09:11.644Z,52.11
2022-08-09T21:14:30.957Z,52.32
2022-08-09T21:16:57.911Z,51.89
2022-08-09T21:20:18.717Z,51.85
2022-08-09T21:22:35.986Z,52.36
2022-08-09T21:25:05.217Z,52.39
2022-08-09T21:27:52.436Z,52.59
2022-08-09T21:30:19.123Z,52.61
2022-08-09T21:32:49.782Z,52.69
2022-08-09T21:35:16.382Z,52.70
2022-08-09T21:37:58.765Z,52.75
2022-08-09T21:40:30.902Z,52.80
2022-08-09T21:42:59.996Z,52.51
2022-08-09T21:45:27.221Z,52.54
2022-08-09T21:47:53.640Z,52.59
2022-08-09T21:50:35.819Z,52.58
2022-08-09T21:53:05.914Z,52.35
2022-08-09T21:55:34.036Z,52.87
2022-08-09T21:58:00.657Z,52.66
2022-08-09T22:00:32.236Z,52.41
2022-08-09T22:02:59.887Z,52.83
2022-08-09T22:05:35.973Z,52.74
2022-08-09T22:08:04.262Z,52.62
2022-08-09T22:10:31.560Z,52.35
2022-08-09T22:12:59.683Z,52.64
2022-08-09T22:15:37.092Z,53.04
2022-08-09T22:18:03.613Z,52.75
2022-08-09T22:20:31.223Z,52.79
2022-08-09T22:23:00.743Z,52.57
2022-08-09T22:26:07.584Z,52.90
2022-08-09T22:28:13.543Z,52.62
2022-08-09T22:30:48.687Z,53.06
2022-08-09T22:33:17.391Z,52.75
2022-08-09T22:36:02.469Z,52.80
2022-08-09T22:38:30.750Z,52.78
2022-08-09T22:40:58.477Z,53.01
2022-08-09T22:44:01.221Z,53.27
2022-08-09T22:48:10.617Z,53.60
2022-08-09T22:49:09.605Z,53.95
2022-08-09T22:51:38.328Z,53.99
2022-08-09T22:54:08.241Z,53.64
2022-08-09T22:56:37.383Z,53.88
2022-08-09T22:59:58.257Z,53.63
2022-08-09T23:01:53.035Z,53.55
2022-08-09T23:04:19.919Z,53.34
2022-08-09T23:06:46.416Z,53.84
2022-08-09T23:09:15.191Z,53.79
2022-08-09T23:11:41.708Z,53.84
2022-08-09T23:14:17.140Z,53.77
2022-08-09T23:16:44.126Z,54.17
2022-08-09T23:19:11.375Z,54.61
2022-08-09T23:21:38.498Z,53.94
2022-08-09T23:24:07.454Z,54.29
2022-08-09T23:26:35.911Z,54.30
2022-08-09T23:29:03.208Z,54.06
2022-08-09T23:31:29.699Z,54.42
2022-08-09T23:33:58.888Z,54.51
2022-08-09T23:36:25.310Z,54.74
2022-08-09T23:38:52.573Z,53.94
2022-08-09T23:41:28.502Z,54.13
2022-08-09T23:43:55.816Z,54.37
2022-08-09T23:46:22.339Z,54.71
2022-08-09T23:48:49.593Z,54.21
2022-08-09T23:51:16.852Z,54.01
2022-08-09T23:53:43.285Z,54.42
2022-08-09T23:56:09.792Z,54.43
2022-08-09T23:58:36.301Z,54.03
